Terminal Aerodrome Forecast
Issued by NWS

Home | Current Version | Previous Version | Text Only | Print | Product List | Glossary Off
Versions: 1 2 3 4 5 6 7 8 9 10 11 12 13 14 15 16 17 18 19

000
FTUS41 KCLE 200500 RRA
TAFFDY
TAF
KFDY 200541Z 2006/2106 19004KT P6SM BKN250
     FM201400 22015G25KT P6SM BKN250
     FM202000 23012G22KT P6SM SCT045 BKN120
     FM210000 23010KT P6SM VCTS BKN045CB
      TEMPO 2101/2105 3SM TSRA OVC035CB=

USA.gov is the U.S. government's official web portal to all federal, state and local government web resources and services.